createdAt,value
2023-04-27T00:02:23.911Z,98829.27
2023-04-27T00:05:17.878Z,98830.27
2023-04-27T00:08:12.136Z,98831.17
2023-04-27T00:11:06.670Z,98834.27
2023-04-27T00:14:00.490Z,98833.63
2023-04-27T00:16:54.078Z,98833.73
2023-04-27T00:19:48.558Z,98827.64
2023-04-27T00:22:42.593Z,98830.23
2023-04-27T00:25:36.389Z,98825.57
2023-04-27T00:28:30.133Z,98824.42
2023-04-27T00:31:24.063Z,98827.22
2023-04-27T00:34:17.698Z,98825.08
2023-04-27T00:37:11.581Z,98825.48
2023-04-27T00:40:07.896Z,98827.61
2023-04-27T00:43:01.769Z,98829.33
2023-04-27T00:46:00.659Z,98831.70
2023-04-27T00:48:55.214Z,98834.52
2023-04-27T00:51:48.815Z,98833.92
2023-04-27T00:54:42.697Z,98837.70
2023-04-27T00:57:37.269Z,98839.74
2023-04-27T01:00:31.246Z,98841.69
2023-04-27T01:03:25.621Z,98840.14
2023-04-27T01:06:19.461Z,98843.73
2023-04-27T01:09:14.011Z,98840.10
2023-04-27T01:12:09.231Z,98837.52
2023-04-27T01:15:03.324Z,98837.04
2023-04-27T01:18:04.179Z,98835.14
2023-04-27T01:20:58.184Z,98835.73
2023-04-27T01:23:52.281Z,98836.21
2023-04-27T01:26:45.951Z,98839.80
2023-04-27T01:29:40.225Z,98841.59
2023-04-27T01:32:34.275Z,98840.36
2023-04-27T01:35:28.475Z,98839.96
2023-04-27T01:38:24.160Z,98848.42
2023-04-27T01:41:18.289Z,98845.48
2023-04-27T01:44:12.454Z,98850.04
2023-04-27T01:47:06.458Z,98848.88
2023-04-27T01:50:00.797Z,98849.64
2023-04-27T01:52:55.212Z,98848.13
2023-04-27T01:55:49.559Z,98848.76
2023-04-27T01:58:43.742Z,98850.05
2023-04-27T02:01:37.923Z,98852.39
2023-04-27T02:04:31.918Z,98852.95
2023-04-27T02:07:26.175Z,98851.44
2023-04-27T02:10:22.163Z,98859.83
2023-04-27T02:13:16.287Z,98857.66
2023-04-27T02:16:11.034Z,98853.80
2023-04-27T02:19:04.810Z,98853.36
2023-04-27T02:21:59.171Z,98854.30
2023-04-27T02:24:53.381Z,98851.74
2023-04-27T02:27:47.713Z,98851.73
2023-04-27T02:30:42.579Z,98849.66
2023-04-27T02:33:36.610Z,98850.15
2023-04-27T02:36:31.709Z,98847.55
2023-04-27T02:39:25.485Z,98849.34
2023-04-27T02:42:19.463Z,98852.93
2023-04-27T02:45:14.579Z,98852.88
2023-04-27T02:48:09.447Z,98850.23
2023-04-27T02:51:06.038Z,98851.58
2023-04-27T02:54:00.900Z,98853.70
2023-04-27T02:56:55.070Z,98855.21
2023-04-27T02:59:49.173Z,98854.05
2023-04-27T03:02:43.051Z,98854.29
2023-04-27T03:05:37.646Z,98852.95
2023-04-27T03:08:31.879Z,98851.33
2023-04-27T03:11:25.951Z,98852.05
2023-04-27T03:14:19.588Z,98856.12
2023-04-27T03:17:13.381Z,98858.48
2023-04-27T03:20:09.892Z,98863.39
2023-04-27T03:23:03.450Z,98865.07
2023-04-27T03:25:57.267Z,98866.50
2023-04-27T03:28:51.099Z,98869.52
2023-04-27T03:31:44.726Z,98870.42
2023-04-27T03:34:38.470Z,98871.65
2023-04-27T03:37:32.818Z,98871.75
2023-04-27T03:40:26.978Z,98876.02
2023-04-27T03:43:21.498Z,98877.25
2023-04-27T03:46:15.061Z,98883.95
2023-04-27T03:49:08.751Z,98885.20
2023-04-27T03:52:03.138Z,98888.86
2023-04-27T03:54:56.860Z,98887.83
2023-04-27T03:57:50.597Z,98891.51
2023-04-27T04:00:44.617Z,98891.70
2023-04-27T04:03:38.595Z,98894.94
2023-04-27T04:06:32.924Z,98897.66
2023-04-27T04:09:26.657Z,98902.82
2023-04-27T04:12:20.502Z,98904.16
2023-04-27T04:15:15.252Z,98906.86
2023-04-27T04:18:09.062Z,98906.37
2023-04-27T04:21:03.109Z,98907.44
2023-04-27T04:23:57.193Z,98906.81
2023-04-27T04:26:50.850Z,98905.59
2023-04-27T04:29:44.443Z,98908.64
2023-04-27T04:32:38.905Z,98908.65
2023-04-27T04:35:33.054Z,98909.06
2023-04-27T04:38:27.369Z,98912.68
2023-04-27T04:41:21.043Z,98914.71
2023-04-27T04:44:15.753Z,98918.02
2023-04-27T04:47:10.220Z,98924.48
2023-04-27T04:50:04.072Z,98925.31
2023-04-27T04:52:57.799Z,98923.24
2023-04-27T04:55:51.634Z,98927.17
2023-04-27T04:58:45.349Z,98935.58
2023-04-27T05:01:39.188Z,98932.16
2023-04-27T05:04:32.976Z,98931.54
2023-04-27T05:07:27.037Z,98931.38
2023-04-27T05:10:21.176Z,98931.59
2023-04-27T05:13:14.978Z,98937.66
2023-04-27T05:16:10.592Z,98941.61
2023-04-27T05:19:06.015Z,98941.21
2023-04-27T05:22:00.488Z,98945.77
2023-04-27T05:24:54.449Z,98940.87
2023-04-27T05:27:48.378Z,98943.74
2023-04-27T05:30:42.534Z,98946.67
2023-04-27T05:33:36.425Z,98944.09
2023-04-27T05:36:30.295Z,98951.19
2023-04-27T05:39:23.997Z,98959.91
2023-04-27T05:42:17.852Z,98959.55
2023-04-27T05:45:13.808Z,98963.98
2023-04-27T05:48:07.890Z,98966.77
2023-04-27T05:51:06.058Z,98965.40
2023-04-27T05:54:01.896Z,98967.18
2023-04-27T05:56:55.882Z,98967.50
2023-04-27T05:59:50.366Z,98971.95
2023-04-27T06:02:44.279Z,98967.91
2023-04-27T06:05:38.181Z,98968.59
2023-04-27T06:08:32.353Z,98970.09
2023-04-27T06:11:26.248Z,98973.80
2023-04-27T06:14:20.060Z,98976.23
2023-04-27T06:17:14.099Z,98975.14
2023-04-27T06:20:10.234Z,98977.77
2023-04-27T06:23:04.305Z,98979.19
2023-04-27T06:25:58.855Z,98976.06
2023-04-27T06:28:53.004Z,98976.95
2023-04-27T06:31:47.239Z,98981.08
2023-04-27T06:34:41.455Z,98983.06
2023-04-27T06:37:35.209Z,98985.36
2023-04-27T06:40:29.512Z,98986.02
2023-04-27T06:43:23.358Z,98986.48
2023-04-27T06:46:17.201Z,98983.08
2023-04-27T06:49:02.856Z,98983.17
2023-04-27T06:51:56.933Z,98986.02
2023-04-27T06:54:50.660Z,98987.63
2023-04-27T06:57:44.558Z,98984.36
2023-04-27T07:00:38.709Z,98988.58
2023-04-27T07:03:35.550Z,98990.61
2023-04-27T07:06:29.798Z,98989.52
2023-04-27T07:09:27.483Z,98989.60
2023-04-27T07:12:21.674Z,98992.77
2023-04-27T07:15:15.896Z,98989.48
2023-04-27T07:18:12.109Z,98986.13
2023-04-27T07:21:06.752Z,98988.39
2023-04-27T07:24:00.589Z,98989.65
2023-04-27T07:26:54.450Z,98985.07
2023-04-27T07:29:48.305Z,98986.98
2023-04-27T07:32:44.513Z,98988.25
2023-04-27T07:35:38.480Z,98984.68
2023-04-27T07:38:32.599Z,98986.27
2023-04-27T07:41:27.478Z,98984.17
2023-04-27T07:44:21.991Z,98986.81
2023-04-27T07:47:16.471Z,98988.70
2023-04-27T07:50:12.729Z,98984.71
2023-04-27T07:53:06.829Z,98979.40
2023-04-27T07:56:01.010Z,98977.35
2023-04-27T07:58:54.858Z,98977.86
2023-04-27T08:01:49.072Z,98980.64
2023-04-27T08:04:43.514Z,98981.81
2023-04-27T08:07:42.775Z,98987.95
2023-04-27T08:10:38.342Z,98990.80
2023-04-27T08:13:34.694Z,98994.16
2023-04-27T08:16:28.789Z,98995.23
2023-04-27T08:19:22.495Z,99001.39
2023-04-27T08:22:16.495Z,99003.31
2023-04-27T08:25:12.453Z,98993.67
2023-04-27T08:28:06.374Z,98988.20
2023-04-27T08:31:00.203Z,98985.66
2023-04-27T08:33:54.208Z,98988.08
2023-04-27T08:36:47.986Z,98987.02
2023-04-27T08:39:42.127Z,98988.88
2023-04-27T08:42:35.836Z,98989.24
2023-04-27T08:45:30.657Z,98988.79
2023-04-27T08:48:24.632Z,98990.94
2023-04-27T08:51:20.095Z,98988.75
2023-04-27T08:54:05.148Z,98991.91
2023-04-27T08:56:59.539Z,98995.45
2023-04-27T09:00:11.955Z,98999.23
2023-04-27T09:03:06.421Z,98998.20
2023-04-27T09:06:05.366Z,99001.64
2023-04-27T09:09:00.742Z,99001.42
2023-04-27T09:11:54.761Z,98999.23
2023-04-27T09:15:10.238Z,98999.08
2023-04-27T09:18:04.772Z,98994.46
2023-04-27T09:20:58.518Z,98995.38
2023-04-27T09:23:52.443Z,98992.55
2023-04-27T09:26:53.976Z,98990.23
2023-04-27T09:29:47.621Z,98992.67
2023-04-27T09:32:49.667Z,98993.25
2023-04-27T09:35:46.875Z,98997.02
2023-04-27T09:38:41.503Z,98994.33
2023-04-27T09:41:36.650Z,98997.54
2023-04-27T09:44:32.514Z,99000.66
2023-04-27T09:47:28.622Z,99006.08
2023-04-27T09:50:23.108Z,99000.58
2023-04-27T09:53:19.726Z,99002.05
2023-04-27T09:56:34.654Z,98999.40
2023-04-27T09:59:55.932Z,98997.06
2023-04-27T10:03:04.360Z,98994.55
2023-04-27T10:06:39.512Z,98995.60
2023-04-27T10:09:38.759Z,98997.31
2023-04-27T10:12:37.382Z,98997.03
2023-04-27T10:15:32.141Z,98999.34
2023-04-27T10:18:34.859Z,98993.80
2023-04-27T10:21:30.698Z,98994.85
2023-04-27T10:24:35.859Z,98994.58
2023-04-27T10:27:40.078Z,98996.91
2023-04-27T10:30:39.702Z,98993.81
2023-04-27T10:33:53.912Z,98993.49
2023-04-27T10:36:47.966Z,98986.63
2023-04-27T10:39:49.131Z,98985.52
2023-04-27T10:42:44.558Z,98989.02
2023-04-27T10:45:38.541Z,98987.38
2023-04-27T10:48:32.757Z,98991.51
2023-04-27T10:51:27.476Z,98988.59
2023-04-27T10:54:21.949Z,98984.20
2023-04-27T10:57:16.383Z,98980.90
2023-04-27T11:00:16.440Z,98988.45
2023-04-27T11:03:20.950Z,98992.25
2023-04-27T11:06:15.158Z,98997.06
2023-04-27T11:09:10.797Z,98995.56
2023-04-27T11:12:05.035Z,98991.59
2023-04-27T11:15:03.411Z,98993.73
2023-04-27T11:18:08.497Z,98995.54
2023-04-27T11:21:13.337Z,98995.30
2023-04-27T11:24:08.829Z,99000.46
2023-04-27T11:27:03.286Z,99004.73
2023-04-27T11:29:57.445Z,99008.23
2023-04-27T11:32:51.580Z,99009.27
2023-04-27T11:35:45.513Z,99016.02
2023-04-27T11:38:39.692Z,99020.94
2023-04-27T11:41:49.619Z,99020.83
2023-04-27T11:44:43.616Z,99022.67
2023-04-27T11:47:38.029Z,99028.72
2023-04-27T11:50:31.923Z,99023.20
2023-04-27T11:53:36.706Z,99016.72
2023-04-27T11:56:39.509Z,99022.94
2023-04-27T11:59:33.698Z,99022.89
2023-04-27T12:02:28.636Z,99020.77
2023-04-27T12:05:23.098Z,99018.73
2023-04-27T12:08:17.451Z,99015.36
2023-04-27T12:11:11.153Z,99019.31
2023-04-27T12:14:05.440Z,99018.64
2023-04-27T12:16:59.301Z,99019.85
2023-04-27T12:19:53.112Z,99018.33
2023-04-27T12:22:46.733Z,99017.20
2023-04-27T12:25:41.165Z,99017.80
2023-04-27T12:28:34.887Z,99013.06
2023-04-27T12:31:28.594Z,99010.34
2023-04-27T12:34:30.932Z,99013.80
2023-04-27T12:37:26.856Z,99010.70
2023-04-27T12:40:23.207Z,99010.96
2023-04-27T12:43:17.277Z,99009.71
2023-04-27T12:46:11.670Z,99009.67
2023-04-27T12:49:06.332Z,99009.23
2023-04-27T12:51:59.982Z,99010.70
2023-04-27T12:54:57.690Z,99009.21
2023-04-27T12:57:51.360Z,99008.60
2023-04-27T13:00:45.200Z,99015.25
2023-04-27T13:03:39.103Z,99013.75
2023-04-27T13:06:33.126Z,99018.02
2023-04-27T13:09:27.452Z,99017.00
2023-04-27T13:12:21.416Z,99013.42
2023-04-27T13:15:15.989Z,99008.75
2023-04-27T13:18:12.469Z,99006.38
2023-04-27T13:21:07.379Z,99005.86
2023-04-27T13:24:01.191Z,99003.59
2023-04-27T13:26:54.877Z,99002.49
2023-04-27T13:29:51.166Z,99001.56
2023-04-27T13:32:44.864Z,99001.83
2023-04-27T13:35:39.440Z,99005.15
2023-04-27T13:38:33.444Z,99003.82
2023-04-27T13:41:28.090Z,99004.11
2023-04-27T13:44:21.757Z,99008.09
2023-04-27T13:47:15.853Z,99010.44
2023-04-27T13:50:12.470Z,99005.33
2023-04-27T13:53:07.377Z,99008.95
2023-04-27T13:56:01.730Z,99015.02
2023-04-27T13:58:55.924Z,99020.48
2023-04-27T14:01:49.660Z,99019.52
2023-04-27T14:04:43.782Z,99024.90
2023-04-27T14:07:37.731Z,99026.06
2023-04-27T14:10:31.632Z,99025.98
2023-04-27T14:13:25.783Z,99023.08
2023-04-27T14:16:19.538Z,99019.23
2023-04-27T14:19:16.045Z,99022.44
2023-04-27T14:22:10.079Z,99025.67
2023-04-27T14:25:04.272Z,99025.15
2023-04-27T14:27:57.995Z,99028.05
2023-04-27T14:30:52.597Z,99025.83
2023-04-27T14:33:47.360Z,99033.92
2023-04-27T14:36:41.207Z,99036.10
2023-04-27T14:39:34.919Z,99041.33
2023-04-27T14:42:28.967Z,99042.95
2023-04-27T14:45:24.249Z,99042.02
2023-04-27T14:48:18.274Z,99041.48
2023-04-27T14:51:12.214Z,99039.48
2023-04-27T14:54:06.384Z,99043.05
2023-04-27T14:57:01.069Z,99038.71
2023-04-27T14:59:54.799Z,99036.79
2023-04-27T15:02:49.220Z,99041.06
2023-04-27T15:05:43.966Z,99042.83
2023-04-27T15:08:38.087Z,99043.25
2023-04-27T15:11:31.920Z,99043.15
2023-04-27T15:14:25.863Z,99046.34
2023-04-27T15:17:19.498Z,99043.96
2023-04-27T15:20:14.561Z,99051.90
2023-04-27T15:23:08.731Z,99051.29
2023-04-27T15:26:02.892Z,99048.56
2023-04-27T15:28:58.215Z,99049.65
2023-04-27T15:31:53.143Z,99048.88
2023-04-27T15:34:47.230Z,99046.16
2023-04-27T15:37:41.400Z,99048.17
2023-04-27T15:40:35.676Z,99041.98
2023-04-27T15:43:31.978Z,99040.73
2023-04-27T15:46:28.680Z,99039.17
2023-04-27T15:49:22.712Z,99041.35
2023-04-27T15:52:17.080Z,99039.21
2023-04-27T15:55:12.387Z,99041.80
2023-04-27T15:58:06.340Z,99042.25
2023-04-27T16:01:00.475Z,99043.48
2023-04-27T16:03:54.396Z,99043.75
2023-04-27T16:06:48.354Z,99044.66
2023-04-27T16:09:42.758Z,99047.55
2023-04-27T16:12:36.710Z,99047.40
2023-04-27T16:15:30.621Z,99046.45
2023-04-27T16:18:24.396Z,99044.31
2023-04-27T16:21:18.307Z,99043.91
2023-04-27T16:24:13.039Z,99045.48
2023-04-27T16:27:07.292Z,99049.23
2023-04-27T16:30:01.074Z,99050.09
2023-04-27T16:32:55.623Z,99050.41
2023-04-27T16:35:49.950Z,99051.25
2023-04-27T16:38:43.874Z,99051.90
2023-04-27T16:41:37.804Z,99053.90
2023-04-27T16:44:32.198Z,99051.60
2023-04-27T16:47:26.635Z,99053.06
2023-04-27T16:50:20.428Z,99055.31
2023-04-27T16:53:20.286Z,99056.85
2023-04-27T16:56:14.391Z,99062.16
2023-04-27T16:59:10.491Z,99062.77
2023-04-27T17:02:17.066Z,99059.52
2023-04-27T17:05:17.881Z,99062.30
2023-04-27T17:08:11.618Z,99059.63
2023-04-27T17:11:10.519Z,99065.20
2023-04-27T17:14:04.263Z,99069.62
2023-04-27T17:16:58.811Z,99070.88
2023-04-27T17:19:52.422Z,99073.48
2023-04-27T17:22:46.243Z,99071.73
2023-04-27T17:25:40.300Z,99075.40
2023-04-27T17:28:34.148Z,99076.42
2023-04-27T17:31:28.245Z,99080.19
2023-04-27T17:34:22.835Z,99079.54
2023-04-27T17:37:16.830Z,99077.91
2023-04-27T17:40:13.954Z,99078.70
2023-04-27T17:43:07.865Z,99078.11
2023-04-27T17:46:01.885Z,99077.23
2023-04-27T17:48:46.230Z,99075.38
2023-04-27T17:51:40.617Z,99080.36
2023-04-27T17:54:34.596Z,99076.88
2023-04-27T17:57:28.448Z,99075.92
2023-04-27T18:00:23.114Z,99074.20
2023-04-27T18:03:17.067Z,99079.70
2023-04-27T18:06:11.939Z,99083.81
2023-04-27T18:09:06.358Z,99087.04
2023-04-27T18:12:00.196Z,99092.48
2023-04-27T18:14:53.968Z,99089.35
2023-04-27T18:17:48.035Z,99093.80
2023-04-27T18:20:44.843Z,99098.76
2023-04-27T18:23:41.374Z,99104.07
2023-04-27T18:26:36.913Z,99103.73
2023-04-27T18:29:30.694Z,99105.16
2023-04-27T18:32:24.617Z,99101.80
2023-04-27T18:35:18.441Z,99106.19
2023-04-27T18:38:12.497Z,99115.58
2023-04-27T18:41:06.533Z,99112.41
2023-04-27T18:44:06.648Z,99115.88
2023-04-27T18:47:01.427Z,99118.91
2023-04-27T18:49:55.139Z,99116.86
2023-04-27T18:52:48.755Z,99115.36
2023-04-27T18:55:42.864Z,99119.88
2023-04-27T18:58:37.111Z,99122.46
2023-04-27T19:01:31.441Z,99123.31
2023-04-27T19:04:26.072Z,99122.10
2023-04-27T19:07:02.584Z,99122.91
2023-04-27T19:09:56.651Z,99128.02
2023-04-27T19:12:50.476Z,99129.33
2023-04-27T19:15:44.371Z,99131.92
2023-04-27T19:18:38.539Z,99132.61
2023-04-27T19:21:32.448Z,99133.14
2023-04-27T19:24:26.188Z,99134.64
2023-04-27T19:27:19.838Z,99134.31
2023-04-27T19:30:15.087Z,99131.66
2023-04-27T19:33:08.953Z,99130.52
2023-04-27T19:36:02.720Z,99137.98
2023-04-27T19:38:56.749Z,99140.38
2023-04-27T19:41:50.541Z,99140.15
2023-04-27T19:44:44.629Z,99141.38
2023-04-27T19:47:38.401Z,99140.38
2023-04-27T19:50:32.036Z,99141.48
2023-04-27T19:53:25.968Z,99142.57
2023-04-27T19:56:20.069Z,99138.98
2023-04-27T19:59:14.051Z,99140.29
2023-04-27T20:02:08.139Z,99137.94
2023-04-27T20:05:02.951Z,99138.90
2023-04-27T20:07:57.168Z,99141.96
2023-04-27T20:10:51.113Z,99141.48
2023-04-27T20:13:46.211Z,99140.84
2023-04-27T20:16:39.897Z,99140.27
2023-04-27T20:19:33.931Z,99141.46
2023-04-27T20:22:28.185Z,99144.32
2023-04-27T20:25:22.040Z,99148.14
2023-04-27T20:28:16.280Z,99145.12
2023-04-27T20:31:10.058Z,99144.05
2023-04-27T20:34:03.706Z,99142.46
2023-04-27T20:36:57.937Z,99146.98
2023-04-27T20:39:51.694Z,99147.82
2023-04-27T20:42:45.995Z,99147.61
2023-04-27T20:45:40.095Z,99150.29
2023-04-27T20:48:33.944Z,99152.80
2023-04-27T20:51:28.010Z,99152.94
2023-04-27T20:54:21.736Z,99150.11
2023-04-27T20:57:16.364Z,99152.98
2023-04-27T21:00:14.330Z,99150.08
2023-04-27T21:03:08.148Z,99143.56
2023-04-27T21:06:01.963Z,99148.66
2023-04-27T21:08:55.634Z,99153.88
2023-04-27T21:11:49.297Z,99152.21
2023-04-27T21:14:43.169Z,99152.45
2023-04-27T21:17:36.975Z,99149.65
2023-04-27T21:20:30.688Z,99149.80
2023-04-27T21:23:24.305Z,99150.90
2023-04-27T21:26:17.902Z,99151.47
2023-04-27T21:29:11.728Z,99146.14
2023-04-27T21:32:05.703Z,99146.24
2023-04-27T21:34:59.403Z,99149.54
2023-04-27T21:37:53.068Z,99149.12
2023-04-27T21:40:46.953Z,99156.89
2023-04-27T21:43:41.889Z,99161.05
2023-04-27T21:46:36.034Z,99168.09
2023-04-27T21:49:29.800Z,99165.54
2023-04-27T21:52:24.466Z,99167.49
2023-04-27T21:55:18.410Z,99168.75
2023-04-27T21:58:12.061Z,99170.08
2023-04-27T22:01:05.963Z,99174.13
2023-04-27T22:04:01.072Z,99174.08
2023-04-27T22:06:55.078Z,99171.45
2023-04-27T22:09:49.011Z,99172.02
2023-04-27T22:12:43.064Z,99172.83
2023-04-27T22:15:37.084Z,99169.11
2023-04-27T22:18:31.153Z,99170.73
2023-04-27T22:21:25.304Z,99165.86
2023-04-27T22:24:19.360Z,99166.27
2023-04-27T22:27:13.619Z,99166.46
2023-04-27T22:30:09.324Z,99167.05
2023-04-27T22:33:04.387Z,99160.39
2023-04-27T22:35:58.385Z,99162.17
2023-04-27T22:38:52.680Z,99155.56
2023-04-27T22:41:46.980Z,99160.24
2023-04-27T22:44:40.794Z,99161.65
2023-04-27T22:47:35.536Z,99163.55
2023-04-27T22:50:29.858Z,99161.73
2023-04-27T22:53:23.922Z,99159.27
2023-04-27T22:56:18.220Z,99162.33
2023-04-27T22:59:12.377Z,99164.64
2023-04-27T23:02:06.398Z,99166.19
2023-04-27T23:05:00.363Z,99168.86
2023-04-27T23:07:55.595Z,99169.20
2023-04-27T23:10:49.342Z,99166.61
2023-04-27T23:13:43.132Z,99163.96
2023-04-27T23:16:37.272Z,99162.43
2023-04-27T23:19:31.047Z,99161.25
2023-04-27T23:22:24.887Z,99159.77
2023-04-27T23:25:18.770Z,99162.73
2023-04-27T23:28:12.739Z,99161.77
2023-04-27T23:31:06.488Z,99160.70
2023-04-27T23:33:50.477Z,99160.48
2023-04-27T23:36:44.548Z,99161.70
2023-04-27T23:39:38.688Z,99159.19
2023-04-27T23:42:32.448Z,99157.13
2023-04-27T23:45:26.186Z,99157.70
2023-04-27T23:48:20.223Z,99154.63
2023-04-27T23:51:14.009Z,99152.99
2023-04-27T23:54:07.766Z,99146.20
2023-04-27T23:57:01.412Z,99143.51
2023-04-27T23:59:55.107Z,99137.92
